ADDS METAR Data INFO
IDs: Format: Raw Decoded Include TAF

Data at: 0027 UTC 11 Dec 2017

PHTO 102353Z 11009KT 10SM CLR 27/17 A2995 RMK AO2 SLP142 T02720172 10278 20200 56024
PHTO 102253Z 05008KT 10SM FEW041 27/17 A2997 RMK AO2 SLP148 T02720172
PHTO 102153Z 05006KT 10SM CLR 27/16 A3000 RMK AO2 SLP159 T02670156
PHTO 102053Z 34005KT 10SM SCT044 27/16 A3002 RMK AO2 SLP166 T02670161 58003
PHTO 101953Z 29004KT 10SM SCT049 26/17 A3004 RMK AO2 SLP171 T02560167
PHTO 101853Z 23004KT 10SM OVC050 22/16 A3004 RMK AO2 SLP172 T02170156
PHTO 101753Z 23005KT 10SM BKN048 20/14 A3003 RMK AO2 SLP168 T02000144 10200 20172 53020
PHTO 101653Z COR 22006KT 10SM BKN050 19/14 A3001 RMK AO2 SLP162 T01890144
PHTO 101553Z 22006KT 10SM BKN040 18/13 A2999 RMK AO2 SLP154 T01780128
PHTO 101453Z AUTO 25007KT 10SM SCT042 18/13 A2997 RMK AO2 SLP149 T01780133 55001 TSNO
PHTO 101353Z AUTO 23006KT 10SM CLR 17/13 A2996 RMK AO2 SLP145 T01720133 TSNO
PHTO 101253Z AUTO 23005KT 10SM BKN031 18/14 A2997 RMK AO2 SLP147 T01780144 TSNO
PHTO 101153Z AUTO 22005KT 10SM CLR 17/13 A2998 RMK AO2 SLP150 T01720128 10200 20172 58011 TSNO
PHTO 101053Z AUTO 23006KT 10SM CLR 18/13 A3000 RMK AO2 SLP156 T01780133 TSNO
PHTO 100953Z AUTO 22005KT 10SM CLR 18/14 A3000 RMK AO2 SLP156 T01830144 402670156 TSNO
PHTO 100853Z AUTO 23005KT 10SM FEW040 19/16 A3001 RMK AO2 SLP161 T01890161 50002 TSNO
PHTO 100753Z 21003KT 10SM SCT035 BKN042 20/17 A3002 RMK AO2 SLP163 T02000172
PHTO 100653Z 23003KT 10SM OVC042 20/18 A3002 RMK AO2 SLP163 T02000178
PHTO 100553Z 00000KT 10SM CLR 20/17 A3000 RMK AO2 SLP159 T02000172 10256 20194 51021
PHTO 100453Z 00000KT 10SM BKN049 21/18 A2999 RMK AO2 SLP152 T02110178
PHTO 100353Z 07003KT 10SM OVC048 22/17 A2996 RMK AO2 SLP144 T02220172
PHTO 100253Z COR 10004KT 10SM BKN048 23/17 A2994 RMK AO2 SLP137 T02330172 56002
PHTO 100153Z 05005KT 10SM OVC050 24/16 A2994 RMK AO2 SLP137 T02440161
PHTO 100053Z 07003KT 10SM BKN055 25/16 A2993 RMK AO2 SLP134 T02500156
PHTO 092353Z 05007KT 10SM BKN048 25/16 A2995 RMK AO2 SLP139 T02500161 10267 20172 56017
PHTO 092253Z 05008KT 10SM CLR 26/17 A2995 RMK AO2 SLP140 T02610167
PHTO 092153Z 08008KT 10SM FEW050 26/17 A2998 RMK AO2 SLP152 T02560172
PHTO 092053Z 12007KT 10SM CLR 24/17 A3000 RMK AO2 SLP156 T02390172 58001
PHTO 091953Z 00000KT 10SM CLR 24/16 A3001 RMK AO2 SLP160 T02440161
PHTO 091853Z 00000KT 10SM CLR 22/15 A3001 RMK AO2 SLP160 T02170150
PHTO 091834Z 23003KT 10SM FEW002 20/14 A3001 RMK AO2 T02000144
PHTO 091753Z 22006KT 10SM FEW040 17/13 A3000 RMK AO2 SLP157 T01720128 10172 20156 53017
PHTO 091653Z COR 24006KT 10SM FEW040 16/13 A2998 RMK AO2 SLP149 T01610128 TSNO
PHTO 091553Z AUTO 22006KT 10SM CLR 16/12 A2996 RMK AO2 SLP145 T01560122 TSNO
PHTO 091453Z AUTO 23006KT 10SM CLR 16/13 A2995 RMK AO2 SLP141 T01610128 55014 TSNO
PHTO 091353Z AUTO 23006KT 10SM CLR 16/13 A2995 RMK AO2 SLP140 T01610133 TSNO
PHTO 091253Z AUTO 22007KT 10SM CLR 17/13 A2997 RMK AO2 SLP147 T01670128 TSNO